• Join FlightAware (Why Join?)
  • Login
  • US Flag 
12:08AM EDT


 

Airport Tracker/Info


-or-


 

Live Flight TrackerFlight Track Log ✈ SWA1025 ✈ 04-May-2013 ✈ KPHX - KLAS

Flight Track Log - Related Links

Times and Time Zones

All times are in EDT time to prevent confusion due to time zone crossing. See the SWA1025 flight status page for this flight to view local times or setup timezone preferences in your user account.

Time Position Orientation Groundspeed Altitude Reporting Facility
EDT Latitude Longitude Course Direction KTS MPH feet Rate Location/Type
10:11PM 33.4317 -112.0347 262° West 141 162 2,800  Level Albuquerque Center
10:12PM 33.4353 -112.1053 274° West 217 250 5,700 3,720 Climbing Albuquerque Center
10:13PM 33.4564 -112.1931 286° West 290 334 10,400 3,840 Climbing Albuquerque Center
10:14PM 33.5528 -112.2208 346° North 367 422 13,500 4,020 Climbing Albuquerque Center
10:15PM 33.6644 -112.2472 349° North 402 463 18,600 5,100 Climbing Albuquerque Center
10:16PM 33.7711 -112.2722 349° North 389 448 23,900 4,320 Climbing Albuquerque Center
10:17PM 33.8769 -112.2983 348° North 385 443 27,500 1,980 Climbing Albuquerque Center
10:18PM 33.9925 -112.3258 349° North 422 486 28,000 240 Climbing Albuquerque Center
10:19PM 34.1003 -112.3897 334° Northwest 427 491 28,000  Level Albuquerque Center
10:20PM 34.1806 -112.4936 313° West 421 484 28,000  Level Albuquerque Center
10:21PM 34.2611 -112.5969 313° West 421 484 28,000  Level Albuquerque Center
10:22PM 34.3392 -112.7014 312° West 420 483 28,000  Level Albuquerque Center
10:23PM 34.4183 -112.8056 313° West 419 482 28,000  Level Albuquerque Center
10:24PM 34.5122 -112.9283 313° West 421 484 28,000  Level Albuquerque Center
10:25PM 34.5925 -113.0336 313° West 424 488 28,000  Level Albuquerque Center
10:26PM 34.6719 -113.1403 312° West 426 490 28,000  Level Albuquerque Center
10:27PM 34.7528 -113.2472 313° West 428 493 28,000  Level Albuquerque Center
10:29PM 34.8311 -113.3536 312° West 425 489 28,000  Level Albuquerque Center
10:29PM 34.8789 -113.4175 312° West 425 489 28,000  Level Los Angeles Center
10:30PM 34.9589 -113.5247 312° West 426 490 28,000  Level Los Angeles Center
10:31PM 35.0381 -113.6333 312° West 427 491 28,000  Level Los Angeles Center
10:32PM 35.1183 -113.7403 313° West 426 490 28,000  Level Los Angeles Center
10:33PM 35.1969 -113.8475 312° West 423 487 28,000 -1,560 Level Los Angeles Center
10:34PM 35.2903 -113.9647 314° West 412 474 24,900 -3,300 Descending Los Angeles Center
10:35PM 35.3847 -114.0497 324° Northwest 420 483 21,400 -2,880 Descending Los Angeles Center
10:36PM 35.4594 -114.1197 323° Northwest 411 473 19,100 -2,700 Descending Los Angeles Center
10:37PM 35.5667 -114.2197 323° Northwest 403 464 15,900 -3,060 Descending Los Angeles Center
10:38PM 35.6208 -114.2661 325° Northwest 400 460 14,000 -2,700 Descending Los Angeles Center
10:38PM 35.6494 -114.2953 320° Northwest 387 445 13,200 -1,380 Descending Los Angeles Center
10:39PM 35.7242 -114.3667 322° Northwest 346 398 12,100 -660 Descending Los Angeles Center
10:40PM 35.7933 -114.4067 335° Northwest 313 360 12,000 -60 Descending Los Angeles Center
10:41PM 35.8683 -114.4425 339° North 311 358 12,000 -120 Level Los Angeles Center
10:41PM 35.8836 -114.4494 340° North 310 357 11,900 -840 Descending Los Angeles Center
10:42PM 35.9689 -114.4856 341° North 289 333 11,000 -960 Descending Los Angeles Center
10:43PM 36.0369 -114.4997 350° North 273 314 10,200 -960 Descending Los Angeles Center
10:44PM 36.0767 -114.5608 309° West 241 277 9,100 -840 Descending Los Angeles Center
10:45PM 36.0736 -114.6258 267° West 217 250 8,500 -600 Descending Los Angeles Center
10:46PM 36.0739 -114.6950 270° West 190 219 8,000 -480 Descending Los Angeles Center
10:47PM 36.0750 -114.7586 271° West 188 216 7,600 -660 Descending Los Angeles Center
10:48PM 36.0731 -114.8286 268° West 185 213 6,700 -960 Descending Los Angeles Center
10:49PM 36.0747 -114.8944 272° West 188 216 5,600 -1,080 Descending Los Angeles Center
10:50PM 36.0731 -114.9564 268° West 185 213 4,700 -960 Descending Los Angeles Center
10:51PM 36.0739 -114.9633 278° West 188 216 4,500 -1,020 Descending Los Angeles Center
10:52PM 36.0742 -115.0306 270° West 185 213 3,500 -1,020 Descending Los Angeles Center
10:52PM 36.0739 -115.0786 270° West 150 173 2,800 -780 Descending Los Angeles Center
10:53PM 36.0742 -115.0844 273° West 180 207 2,700 -660 Descending Los Angeles Center
10:54PM 36.0736 -115.1244 269° West 144 166 2,000 -720 Descending Los Angeles Center
10:56PM 36.0667 -115.1500 270° West  Level FlightAware Approximate